Time;durP1;ratioP1;P1;durP2;ratioP2;P2;SDS_P1;SDS_P2;PMS_P1;PMS_P2;Temp;Humidity;BMP_temperature;BMP_pressure;BME280_temperature;BME280_humidity;BME280_pressure;Samples;Min_cycle;Max_cycle;Signal;HPM_P1;HPM_P2
2023/11/22 00:02:28;;;;;;;;;0.00;0.00;;;;;13.20;100.00;102254.69;5095288;27;65999;-84
2023/11/22 00:04:54;;;;;;;;;0.00;0.00;;;;;13.70;100.00;102266.09;5102993;27;45141;-86
2023/11/22 00:07:19;;;;;;;;;0.00;0.00;;;;;13.80;100.00;102260.69;5105066;27;45402;-85
2023/11/22 00:09:46;;;;;;;;;0.00;0.00;;;;;13.79;100.00;102261.59;5102847;27;63176;-85
2023/11/22 00:12:11;;;;;;;;;3.00;3.00;;;;;13.29;100.00;102259.78;5103679;27;45389;-85
2023/11/22 00:14:36;;;;;;;;;0.00;0.00;;;;;13.63;100.00;102268.84;5100906;27;67842;-84
2023/11/22 00:17:02;;;;;;;;;0.00;0.00;;;;;13.66;100.00;102274.88;5097199;27;68360;-84
2023/11/22 00:19:27;;;;;;;;;0.00;0.00;;;;;13.64;100.00;102273.19;5096272;27;46983;-84
2023/11/22 00:21:53;;;;;;;;;0.00;0.00;;;;;13.52;100.00;102272.53;5096259;27;45351;-84
2023/11/22 00:24:18;;;;;;;;;0.00;0.00;;;;;13.61;100.00;102270.63;5096474;27;67588;-84
2023/11/22 00:26:43;;;;;;;;;0.00;0.00;;;;;13.61;100.00;102274.09;5097164;27;45337;-85
2023/11/22 00:29:09;;;;;;;;;0.00;0.00;;;;;13.63;100.00;102272.34;5094721;27;72541;-84
2023/11/22 00:31:34;;;;;;;;;0.00;0.00;;;;;13.30;100.00;102266.78;5094536;27;75127;-84
2023/11/22 00:33:59;;;;;;;;;3.00;3.00;;;;;13.51;100.00;102275.16;5094954;27;58586;-85
2023/11/22 00:36:25;;;;;;;;;0.00;0.00;;;;;13.58;100.00;102266.31;5096302;27;53035;-84
2023/11/22 00:38:50;;;;;;;;;0.00;0.00;;;;;13.55;100.00;102267.22;5096242;27;58734;-84
2023/11/22 00:41:15;;;;;;;;;0.00;0.00;;;;;13.51;100.00;102272.53;5096199;27;62590;-84
2023/11/22 00:43:41;;;;;;;;;0.00;0.00;;;;;13.48;100.00;102278.72;5096444;27;45456;-84
2023/11/22 00:46:06;;;;;;;;;0.00;0.00;;;;;13.50;100.00;102271.69;5095040;27;45457;-84
2023/11/22 00:48:32;;;;;;;;;0.00;0.00;;;;;13.51;100.00;102265.56;5095301;27;75316;-84
2023/11/22 00:50:57;;;;;;;;;0.00;0.00;;;;;13.45;100.00;102272.66;5094988;27;45337;-85
2023/11/22 00:53:23;;;;;;;;;0.00;0.00;;;;;13.45;100.00;102272.66;5095323;27;45331;-84
2023/11/22 00:55:48;;;;;;;;;0.00;0.00;;;;;13.43;100.00;102277.03;5095223;27;45516;-84
2023/11/22 00:58:14;;;;;;;;;0.00;0.00;;;;;13.38;100.00;102281.50;5094719;27;45197;-84
2023/11/22 01:00:39;;;;;;;;;0.00;0.00;;;;;13.38;100.00;102279.72;5095226;27;45271;-85
2023/11/22 01:03:05;;;;;;;;;0.00;0.00;;;;;13.34;100.00;102288.53;5096253;27;46000;-84
2023/11/22 01:05:30;;;;;;;;;0.00;0.00;;;;;13.22;100.00;102283.44;5095243;27;45351;-85
2023/11/22 01:07:55;;;;;;;;;0.00;0.00;;;;;13.12;100.00;102282.72;5096120;27;45499;-84
2023/11/22 01:10:22;;;;;;;;;0.00;0.00;;;;;13.35;100.00;102280.66;5094877;27;45706;-84
2023/11/22 01:12:47;;;;;;;;;0.00;0.00;;;;;13.12;100.00;102277.50;5095767;27;45420;-84
2023/11/22 01:15:13;;;;;;;;;0.00;0.00;;;;;13.12;100.00;102278.34;5099362;27;45416;-84
2023/11/22 01:17:39;;;;;;;;;0.00;0.00;;;;;13.10;100.00;102281.88;5099804;27;46013;-84
2023/11/22 01:20:05;;;;;;;;;0.00;0.00;;;;;13.14;100.00;102291.41;5100085;27;45382;-84
2023/11/22 01:22:31;;;;;;;;;0.00;0.00;;;;;13.07;100.00;102300.22;5099689;27;45334;-84
2023/11/22 01:24:56;;;;;;;;;0.00;0.00;;;;;13.24;100.00;102297.34;5099681;27;45284;-84
2023/11/22 01:27:21;;;;;;;;;0.00;0.00;;;;;13.30;100.00;102311.22;5098712;27;58463;-84
2023/11/22 01:29:47;;;;;;;;;0.00;0.00;;;;;13.32;100.00;102304.22;5098487;27;45418;-84
2023/11/22 01:32:12;;;;;;;;;0.00;0.00;;;;;13.38;100.00;102312.88;5097730;27;57209;-84
2023/11/22 01:34:38;;;;;;;;;0.00;0.00;;;;;13.32;100.00;102316.44;5099415;27;45335;-84
2023/11/22 01:37:03;;;;;;;;;0.00;0.00;;;;;13.41;100.00;102318.03;5098174;27;48183;-85
2023/11/22 01:39:29;;;;;;;;;0.00;0.00;;;;;13.33;100.00;102323.38;5098328;27;45816;-84
2023/11/22 01:41:54;;;;;;;;;0.00;0.00;;;;;13.28;100.00;102323.44;5097625;27;49481;-84
2023/11/22 01:44:19;;;;;;;;;0.00;0.00;;;;;13.32;100.00;102321.69;5097820;27;54276;-84
2023/11/22 01:46:45;;;;;;;;;0.00;0.00;;;;;13.31;100.00;102327.78;5098240;27;74124;-84
2023/11/22 01:49:11;;;;;;;;;0.00;0.00;;;;;13.28;100.00;102330.41;5098023;27;45441;-85
2023/11/22 01:51:40;;;;;;;;;0.00;0.00;;;;;13.25;100.00;102325.22;5098244;27;45306;-84
2023/11/22 01:54:07;;;;;;;;;0.00;0.00;;;;;13.24;100.00;102333.94;5097750;27;45428;-84
2023/11/22 01:56:35;;;;;;;;;0.00;0.00;;;;;13.10;100.00;102334.16;5080825;27;48222;-84
2023/11/22 01:59:01;;;;;;;;;0.00;0.00;;;;;12.95;100.00;102337.84;5097741;27;45342;-84
2023/11/22 02:01:27;;;;;;;;;0.00;0.00;;;;;12.92;100.00;102322.19;5083655;27;66136;-84
2023/11/22 02:03:53;;;;;;;;;3.00;3.00;;;;;12.84;100.00;102332.75;5106891;27;45397;-85
2023/11/22 02:06:19;;;;;;;;;0.00;0.00;;;;;12.86;100.00;102319.69;5106894;27;46456;-84
2023/11/22 02:08:44;;;;;;;;;0.00;0.00;;;;;12.82;100.00;102338.91;5106312;27;45410;-84
2023/11/22 02:11:10;;;;;;;;;0.00;0.00;;;;;12.84;100.00;102337.97;5105875;27;45837;-84
2023/11/22 02:13:36;;;;;;;;;0.00;0.00;;;;;12.78;100.00;102341.53;5100019;27;45282;-83
2023/11/22 02:16:02;;;;;;;;;0.00;0.00;;;;;12.84;100.00;102340.59;5098915;27;45448;-85
2023/11/22 02:18:28;;;;;;;;;0.00;0.00;;;;;12.86;100.00;102344.06;5098917;27;45385;-84
2023/11/22 02:20:53;;;;;;;;;0.00;0.00;;;;;12.74;100.00;102337.25;5097642;27;45292;-84
2023/11/22 02:23:19;;;;;;;;;0.00;0.00;;;;;12.81;100.00;102340.63;5096496;27;57869;-83
2023/11/22 02:25:45;;;;;;;;;0.00;0.00;;;;;12.74;100.00;102352.03;5096267;27;45386;-85
2023/11/22 02:28:11;;;;;;;;;0.00;0.00;;;;;12.70;100.00;102352.97;5098647;27;45405;-85
2023/11/22 02:30:36;;;;;;;;;0.00;0.00;;;;;12.69;100.00;102346.88;5098743;27;45401;-85
2023/11/22 02:33:02;;;;;;;;;0.00;0.00;;;;;12.59;100.00;102334.78;5098783;27;45724;-85
2023/11/22 02:35:27;;;;;;;;;0.00;0.00;;;;;12.64;100.00;102343.44;5098608;27;47308;-84
2023/11/22 02:37:53;;;;;;;;;0.00;0.00;;;;;12.56;100.00;102343.53;5095972;27;70799;-84
2023/11/22 02:40:19;;;;;;;;;0.00;0.00;;;;;12.71;100.00;102345.09;5098447;27;45478;-84
2023/11/22 02:42:49;;;;;;;;;1.00;1.00;;;;;12.65;100.00;102345.19;5098729;27;45334;-84
2023/11/22 02:45:18;;;;;;;;;0.00;0.00;;;;;12.61;100.00;102351.34;5098220;27;45492;-84
2023/11/22 02:47:44;;;;;;;;;0.75;0.75;;;;;12.55;100.00;102356.63;5097063;27;45397;-84
2023/11/22 02:50:11;;;;;;;;;0.00;0.00;;;;;12.47;100.00;102359.31;5097128;27;45441;-84
2023/11/22 02:52:37;;;;;;;;;0.00;0.00;;;;;12.43;100.00;102352.41;5097956;27;45721;-84
2023/11/22 02:55:04;;;;;;;;;0.00;0.00;;;;;12.46;100.00;102354.09;5098026;27;45553;-84
2023/11/22 02:57:30;;;;;;;;;0.00;0.00;;;;;12.48;100.00;102360.19;5098009;27;45784;-83
2023/11/22 02:59:56;;;;;;;;;0.00;0.00;;;;;12.31;100.00;102368.19;5098429;27;45355;-84
2023/11/22 03:02:21;;;;;;;;;0.00;0.00;;;;;12.26;100.00;102370.88;5096923;27;45403;-84
2023/11/22 03:04:47;;;;;;;;;0.00;0.00;;;;;12.12;100.00;102370.13;5097554;27;64593;-84
2023/11/22 03:07:12;;;;;;;;;0.00;0.00;;;;;12.01;100.00;102363.25;5096293;27;45442;-84
2023/11/22 03:09:38;;;;;;;;;0.75;0.00;;;;;11.94;100.00;102372.03;5098216;27;45406;-85
2023/11/22 03:12:03;;;;;;;;;0.75;0.75;;;;;11.80;100.00;102363.41;5097923;27;45377;-84
2023/11/22 03:14:31;;;;;;;;;0.00;0.00;;;;;11.75;100.00;102373.00;5097650;27;46715;-84
2023/11/22 03:16:57;;;;;;;;;0.00;0.00;;;;;11.75;100.00;102384.31;5097788;27;45350;-83
2023/11/22 03:19:24;;;;;;;;;0.00;0.00;;;;;11.78;100.00;102380.81;5097006;27;45354;-84
2023/11/22 03:21:49;;;;;;;;;0.00;0.00;;;;;11.78;100.00;102393.88;5097773;27;45433;-84
2023/11/22 03:24:15;;;;;;;;;0.00;0.00;;;;;11.71;100.00;102393.03;5097894;27;45228;-84
2023/11/22 03:26:41;;;;;;;;;0.00;0.00;;;;;11.62;100.00;102391.34;5096444;27;45727;-84
2023/11/22 03:29:06;;;;;;;;;0.00;0.00;;;;;11.66;100.00;102391.34;5097785;27;45338;-83
2023/11/22 03:31:31;;;;;;;;;0.00;0.00;;;;;11.67;100.00;102406.97;5096713;27;45756;-84
2023/11/22 03:33:57;;;;;;;;;0.00;0.00;;;;;11.64;100.00;102399.16;5095736;27;62955;-84
2023/11/22 03:36:23;;;;;;;;;1.00;1.00;;;;;11.57;100.00;102407.91;5095624;27;45409;-84
2023/11/22 03:38:49;;;;;;;;;0.00;0.00;;;;;11.54;100.00;102413.16;5097790;27;45383;-83
2023/11/22 03:41:14;;;;;;;;;0.00;0.00;;;;;11.46;100.00;102417.53;5097620;27;45316;-83
2023/11/22 03:43:40;;;;;;;;;0.00;0.00;;;;;11.45;100.00;102414.06;5096171;27;46490;-84
2023/11/22 03:46:05;;;;;;;;;0.00;0.00;;;;;11.42;100.00;102417.56;5096429;27;72671;-84
2023/11/22 03:48:30;;;;;;;;;0.00;0.00;;;;;11.46;100.00;102418.44;5097068;27;56781;-84
2023/11/22 03:50:56;;;;;;;;;0.00;0.00;;;;;11.50;100.00;102420.13;5096017;27;69757;-84
2023/11/22 03:53:22;;;;;;;;;0.00;0.00;;;;;11.53;100.00;102432.28;5095611;27;57342;-84
2023/11/22 03:55:49;;;;;;;;;0.00;0.00;;;;;11.53;100.00;102429.66;5100019;27;45412;-84
2023/11/22 03:58:15;;;;;;;;;0.00;0.00;;;;;11.51;100.00;102442.72;5101920;27;45593;-83
2023/11/22 04:00:40;;;;;;;;;0.00;0.00;;;;;11.52;100.00;102443.59;5103391;27;45349;-83
2023/11/22 04:03:06;;;;;;;;;0.00;0.00;;;;;11.47;100.00;102447.97;5103541;27;67972;-84
2023/11/22 04:05:32;;;;;;;;;0.00;0.00;;;;;11.34;100.00;102444.56;5102819;27;45315;-84
2023/11/22 04:07:58;;;;;;;;;0.00;0.00;;;;;11.29;100.00;102452.41;5096303;27;48372;-84
2023/11/22 04:10:23;;;;;;;;;0.00;0.00;;;;;11.19;100.00;102458.53;5095660;27;49065;-82
2023/11/22 04:12:49;;;;;;;;;0.00;0.00;;;;;11.17;100.00;102471.56;5096199;27;67097;-84
2023/11/22 04:15:14;;;;;;;;;4.00;0.00;;;;;11.15;100.00;102477.66;5095254;27;49189;-84
2023/11/22 04:17:40;;;;;;;;;0.00;0.00;;;;;11.10;100.00;102474.19;5096669;27;51122;-83
2023/11/22 04:20:10;;;;;;;;;0.00;0.00;;;;;11.05;100.00;102471.63;5095358;27;45436;-84
2023/11/22 04:22:40;;;;;;;;;0.00;0.00;;;;;10.96;100.00;102467.28;5096822;27;46102;-83
2023/11/22 04:25:06;;;;;;;;;0.00;0.00;;;;;10.79;100.00;102462.13;5096726;27;45412;-84
2023/11/22 04:27:32;;;;;;;;;0.00;0.00;;;;;10.76;100.00;102466.47;5096824;27;45437;-83
2023/11/22 04:29:58;;;;;;;;;0.00;0.00;;;;;10.56;100.00;102479.50;5095806;27;45512;-84
2023/11/22 04:32:23;;;;;;;;;0.00;0.00;;;;;10.57;100.00;102483.88;5096009;27;61640;-83
2023/11/22 04:34:49;;;;;;;;;0.00;0.00;;;;;10.63;100.00;102489.91;5096299;27;45434;-83
2023/11/22 04:37:14;;;;;;;;;0.00;0.00;;;;;10.52;100.00;102496.03;5096132;27;56231;-83
2023/11/22 04:39:40;;;;;;;;;0.00;0.00;;;;;10.53;100.00;102502.94;5096779;27;45290;-83
2023/11/22 04:42:05;;;;;;;;;0.00;0.00;;;;;10.57;100.00;102505.56;5096510;27;45642;-84
2023/11/22 04:44:31;;;;;;;;;0.00;0.00;;;;;10.74;100.00;102512.50;5096441;27;45381;-84
2023/11/22 04:46:59;;;;;;;;;0.00;0.00;;;;;10.79;100.00;102524.66;5095281;27;45390;-84
2023/11/22 04:49:24;;;;;;;;;0.00;0.00;;;;;10.81;100.00;102532.47;5098130;27;45461;-83
2023/11/22 04:51:50;;;;;;;;;0.00;0.00;;;;;10.77;100.00;102546.34;5100061;27;45521;-84
2023/11/22 04:54:15;;;;;;;;;0.00;0.00;;;;;10.71;100.00;102543.75;5100096;27;45400;-83
2023/11/22 04:56:40;;;;;;;;;0.00;0.00;;;;;10.76;100.00;102557.63;5097993;27;69671;-83
2023/11/22 04:59:06;;;;;;;;;0.00;0.00;;;;;10.75;100.00;102563.69;5097998;27;66520;-83
2023/11/22 05:01:32;;;;;;;;;6.00;6.00;;;;;10.79;100.00;102566.31;5099840;27;46063;-83
2023/11/22 05:03:58;;;;;;;;;0.00;0.00;;;;;10.79;100.00;102573.25;5081429;27;45349;-83
2023/11/22 05:06:24;;;;;;;;;0.00;0.00;;;;;10.79;100.00;102579.34;5081927;27;45349;-83
2023/11/22 05:08:49;;;;;;;;;1.00;0.00;;;;;10.77;100.00;102582.81;5100143;27;45293;-84
2023/11/22 05:11:15;;;;;;;;;0.00;0.00;;;;;10.73;100.00;102575.88;5098940;27;74102;-83
2023/11/22 05:13:42;;;;;;;;;0.00;0.00;;;;;10.75;100.00;102576.72;5082487;27;45386;-83
2023/11/22 05:16:08;;;;;;;;;0.25;0.00;;;;;10.77;100.00;102586.31;5099902;27;45413;-83
2023/11/22 05:18:34;;;;;;;;;0.00;0.00;;;;;10.79;100.00;102588.88;5099734;27;45370;-83
2023/11/22 05:20:59;;;;;;;;;0.00;0.00;;;;;10.76;100.00;102600.19;5081511;27;45686;-83
2023/11/22 05:23:24;;;;;;;;;0.00;0.00;;;;;10.74;100.00;102591.50;5099522;27;45307;-83
2023/11/22 05:25:50;;;;;;;;;0.00;0.00;;;;;10.73;100.00;102584.53;5081429;27;45488;-83
2023/11/22 05:28:15;;;;;;;;;1.00;1.00;;;;;10.72;100.00;102590.63;5099380;27;52661;-83
2023/11/22 05:30:41;;;;;;;;;0.00;0.00;;;;;10.70;100.00;102591.47;5099455;27;46296;-84
2023/11/22 05:33:06;;;;;;;;;0.00;0.00;;;;;10.65;100.00;102597.56;5098580;27;65810;-83
2023/11/22 05:35:32;;;;;;;;;0.00;0.00;;;;;10.65;100.00;102588.88;5099396;27;45529;-83
2023/11/22 05:37:57;;;;;;;;;1.00;1.00;;;;;10.67;100.00;102605.38;5099699;27;45302;-84
2023/11/22 05:40:23;;;;;;;;;0.00;0.00;;;;;10.64;100.00;102611.47;5080460;27;67565;-83
2023/11/22 05:42:48;;;;;;;;;0.00;0.00;;;;;10.65;100.00;102609.72;5080993;27;45323;-83
2023/11/22 05:45:13;;;;;;;;;0.00;0.00;;;;;10.63;100.00;102609.72;5098515;27;66752;-83
2023/11/22 05:47:38;;;;;;;;;0.00;0.00;;;;;10.70;100.00;102617.53;5098803;27;45410;-83
2023/11/22 05:50:05;;;;;;;;;0.00;0.00;;;;;10.65;100.00;102612.34;5084203;27;73055;-84
2023/11/22 05:52:30;;;;;;;;;0.00;0.00;;;;;10.59;100.00;102615.78;5087104;27;45426;-83
2023/11/22 05:54:56;;;;;;;;;0.00;0.00;;;;;10.60;100.00;102620.13;5086814;27;61425;-83
2023/11/22 05:57:21;;;;;;;;;0.00;0.00;;;;;10.64;100.00;102623.59;5106049;27;45481;-84
2023/11/22 05:59:47;;;;;;;;;0.00;0.00;;;;;10.62;100.00;102625.34;5104446;27;46176;-84
2023/11/22 06:02:12;;;;;;;;;0.00;0.00;;;;;10.62;100.00;102623.63;5098676;27;45457;-83
2023/11/22 06:04:38;;;;;;;;;0.00;0.00;;;;;10.64;100.00;102616.69;5098135;27;45441;-83
2023/11/22 06:07:04;;;;;;;;;0.00;0.00;;;;;10.60;100.00;102620.13;5080086;27;60138;-83
2023/11/22 06:09:30;;;;;;;;;0.00;0.00;;;;;10.56;100.00;102623.59;5099084;27;46383;-84
2023/11/22 06:11:55;;;;;;;;;0.00;0.00;;;;;10.54;100.00;102632.28;5098628;27;53882;-83
2023/11/22 06:14:20;;;;;;;;;1.00;1.00;;;;;10.51;100.00;102635.75;5098175;27;63014;-83
2023/11/22 06:16:46;;;;;;;;;0.00;0.00;;;;;10.49;100.00;102637.47;5097697;27;69333;-83
2023/11/22 06:19:11;;;;;;;;;0.75;0.75;;;;;10.47;100.00;102634.00;5098673;27;47709;-83
2023/11/22 06:21:38;;;;;;;;;0.00;0.00;;;;;10.46;100.00;102640.94;5098979;27;45244;-83
2023/11/22 06:24:05;;;;;;;;;0.00;0.00;;;;;10.42;100.00;102646.16;5099130;27;45370;-83
2023/11/22 06:26:32;;;;;;;;;0.00;0.00;;;;;10.31;100.00;102642.63;5098579;27;45366;-84
2023/11/22 06:28:57;;;;;;;;;0.00;0.00;;;;;10.30;100.00;102653.91;5098534;27;46204;-83
2023/11/22 06:31:22;;;;;;;;;0.00;0.00;;;;;10.19;100.00;102667.72;5079535;27;65945;-83
2023/11/22 06:33:48;;;;;;;;;0.00;0.00;;;;;10.20;100.00;102668.63;5096453;27;68589;-84
2023/11/22 06:36:14;;;;;;;;;0.25;0.00;;;;;10.19;100.00;102659.06;5098688;27;45513;-84
2023/11/22 06:38:40;;;;;;;;;0.00;0.00;;;;;10.15;100.00;102662.53;5098225;27;46724;-84
2023/11/22 06:41:06;;;;;;;;;0.25;0.25;;;;;10.12;100.00;102667.69;5097211;27;45600;-82
2023/11/22 06:43:31;;;;;;;;;0.00;0.00;;;;;10.06;100.00;102673.75;5097923;27;45552;-81
2023/11/22 06:45:57;;;;;;;;;0.00;0.00;;;;;10.02;100.00;102674.59;5096857;27;70077;-81
2023/11/22 06:48:22;;;;;;;;;0.25;0.00;;;;;9.94;100.00;102663.31;5096810;27;47102;-81
2023/11/22 06:50:48;;;;;;;;;1.00;1.00;;;;;9.80;100.00;102663.22;5097069;27;45477;-81
2023/11/22 06:53:13;;;;;;;;;0.00;0.00;;;;;9.87;100.00;102672.81;5098517;27;45492;-83
2023/11/22 06:55:46;;;;;;;;;0.00;0.00;;;;;9.71;100.00;102665.78;5096897;27;45505;-87
2023/11/22 06:58:17;;;;;;;;;0.00;0.00;;;;;9.72;100.00;102676.19;5100996;27;45262;-87
2023/11/22 07:00:45;;;;;;;;;6.00;6.00;;;;;9.65;100.00;102670.06;5097653;27;45424;-89
2023/11/22 07:03:31;;;;;;;;;;;;;;;;;;;;;
2023/11/22 07:05:59;;;;;;;;;0.75;0.75;;;;;9.57;100.00;102676.97;5097224;27;70094;-87
2023/11/22 07:08:26;;;;;;;;;2.00;2.00;;;;;9.48;100.00;102672.56;5097701;27;45283;-87
2023/11/22 07:11:00;;;;;;;;;0.00;0.00;;;;;9.44;100.00;102686.41;5097607;27;45371;-87
2023/11/22 07:13:26;;;;;;;;;0.00;0.00;;;;;9.41;100.00;102689.00;5096740;27;45423;-81
2023/11/22 07:15:52;;;;;;;;;0.00;0.00;;;;;9.40;100.00;102684.66;5097850;27;45284;-81
2023/11/22 07:18:17;;;;;;;;;0.00;0.00;;;;;9.39;100.00;102685.50;5096580;27;45770;-82
2023/11/22 07:20:42;;;;;;;;;0.00;0.00;;;;;9.39;100.00;102703.69;5097861;27;45340;-82
2023/11/22 07:23:13;;;;;;;;;0.00;0.00;;;;;9.37;100.00;102715.81;5097297;27;45400;-81
2023/11/22 07:25:38;;;;;;;;;4.00;2.00;;;;;9.34;100.00;102723.59;5097609;27;45293;-81
2023/11/22 07:28:04;;;;;;;;;0.00;0.00;;;;;9.30;100.00;102716.63;5097160;27;45569;-82
2023/11/22 07:30:30;;;;;;;;;0.00;0.00;;;;;9.24;100.00;102720.03;5096668;27;65709;-81
2023/11/22 07:32:55;;;;;;;;;0.00;0.00;;;;;9.22;100.00;102721.78;5130469;27;45427;-81
2023/11/22 07:35:21;;;;;;;;;0.00;0.00;;;;;9.23;100.00;102727.81;5096694;27;69490;-81
2023/11/22 07:37:47;;;;;;;;;0.00;0.00;;;;;9.28;100.00;102728.75;5097339;27;46385;-81
2023/11/22 07:40:13;;;;;;;;;0.00;0.00;;;;;9.23;100.00;102728.72;5079078;27;45367;-82
2023/11/22 07:42:39;;;;;;;;;0.00;0.00;;;;;9.25;100.00;102732.19;5098605;27;45473;-82
2023/11/22 07:45:05;;;;;;;;;0.25;0.00;;;;;9.29;100.00;102739.16;5099450;27;45372;-82
2023/11/22 07:47:31;;;;;;;;;0.00;0.00;;;;;9.29;100.00;102740.91;5099627;27;46561;-82
2023/11/22 07:49:56;;;;;;;;;0.00;0.00;;;;;9.26;100.00;102733.91;5099661;27;69357;-83
2023/11/22 07:52:22;;;;;;;;;0.00;0.00;;;;;9.33;100.00;102747.84;5102583;27;45205;-83
2023/11/22 07:54:48;;;;;;;;;0.00;0.00;;;;;9.30;100.00;102751.31;5098552;27;45444;-83
2023/11/22 07:57:14;;;;;;;;;0.00;0.00;;;;;9.30;100.00;102748.72;5096795;27;45439;-83
2023/11/22 07:59:39;;;;;;;;;1.00;1.00;;;;;9.30;100.00;102742.63;5097299;27;45428;-83
2023/11/22 08:02:10;;;;;;;;;0.00;0.00;;;;;9.32;100.00;102742.63;5095744;27;45366;-83
2023/11/22 08:04:36;;;;;;;;;0.00;0.00;;;;;9.31;100.00;102736.56;5095967;27;45731;-82
2023/11/22 08:07:01;;;;;;;;;0.00;0.00;;;;;9.35;100.00;102724.47;5096091;27;68552;-83
2023/11/22 08:09:32;;;;;;;;;0.00;0.00;;;;;9.40;100.00;102722.78;5095866;27;45418;-82
2023/11/22 08:11:58;;;;;;;;;0.00;0.00;;;;;9.38;100.00;102722.78;5096702;27;45381;-83
2023/11/22 08:14:24;;;;;;;;;0.00;0.00;;;;;9.37;100.00;102721.03;5095660;27;45416;-83
2023/11/22 08:16:50;;;;;;;;;0.00;0.00;;;;;9.39;100.00;102736.63;5096774;27;45591;-82
2023/11/22 08:19:16;;;;;;;;;0.00;0.00;;;;;9.40;100.00;102743.59;5095860;27;72242;-82
2023/11/22 08:21:42;;;;;;;;;1.00;0.00;;;;;9.39;100.00;102747.88;5096403;27;45356;-82
2023/11/22 08:24:07;;;;;;;;;0.25;0.00;;;;;9.35;100.00;102761.72;5095076;27;45508;-83
2023/11/22 08:26:32;;;;;;;;;0.00;0.00;;;;;9.34;100.00;102762.56;5096239;27;46109;-82
2023/11/22 08:28:58;;;;;;;;;0.00;0.00;;;;;9.35;100.00;102771.25;5094758;27;72825;-82
2023/11/22 08:31:23;;;;;;;;;8.00;8.00;;;;;9.35;100.00;102777.31;5094412;27;69578;-85
2023/11/22 08:33:48;;;;;;;;;0.00;0.00;;;;;9.41;100.00;102781.69;5077899;27;45365;-82
2023/11/22 08:36:14;;;;;;;;;1.00;1.00;;;;;9.46;100.00;102795.63;5095045;27;75179;-83
2023/11/22 08:38:40;;;;;;;;;0.00;0.00;;;;;9.47;100.00;102787.84;5094872;27;68469;-83
2023/11/22 08:41:07;;;;;;;;;3.00;3.00;;;;;9.48;100.00;102799.09;5094829;27;45450;-82
2023/11/22 08:43:33;;;;;;;;;2.00;0.50;;;;;9.45;100.00;102799.94;5094980;27;45516;-83
2023/11/22 08:45:59;;;;;;;;;0.00;0.00;;;;;9.47;100.00;102793.03;5096473;27;45522;-83
2023/11/22 08:48:24;;;;;;;;;0.00;0.00;;;;;9.48;100.00;102792.16;5096239;27;45425;-83
2023/11/22 08:50:49;;;;;;;;;0.00;0.00;;;;;9.46;100.00;102796.47;5096573;27;45453;-83
2023/11/22 08:53:15;;;;;;;;;0.00;0.00;;;;;9.50;100.00;102793.03;5096148;27;45394;-82
2023/11/22 08:55:40;;;;;;;;;0.00;0.00;;;;;9.49;100.00;102803.44;5094612;27;45665;-83
2023/11/22 08:58:08;;;;;;;;;0.00;0.00;;;;;9.49;100.00;102799.13;5093721;27;73016;-81
2023/11/22 09:00:33;;;;;;;;;0.00;0.00;;;;;9.52;100.00;102785.25;5096479;27;45433;-81
2023/11/22 09:02:59;;;;;;;;;0.50;0.50;;;;;9.56;100.00;102791.34;5095809;27;45462;-82
2023/11/22 09:05:24;;;;;;;;;0.00;0.00;;;;;9.57;100.00;102778.38;5094084;27;46525;-82
2023/11/22 09:07:51;;;;;;;;;0.00;0.00;;;;;9.64;100.00;102785.38;5087652;27;69782;-81
2023/11/22 09:10:18;;;;;;;;;2.50;0.00;;;;;9.62;100.00;102791.41;5075210;27;45470;-81
2023/11/22 09:12:44;;;;;;;;;0.00;0.00;;;;;9.65;100.00;102800.09;5080758;27;45435;-81
2023/11/22 09:15:12;;;;;;;;;0.00;0.00;;;;;9.69;100.00;102812.28;5057382;28;45663;-82
2023/11/22 09:17:42;;;;;;;;;0.00;0.00;;;;;9.73;100.00;102817.50;5068269;27;45434;-82
2023/11/22 09:20:17;;;;;;;;;1.00;1.00;;;;;9.80;100.00;102814.94;5094543;27;45419;-81
2023/11/22 09:22:50;;;;;;;;;0.00;0.00;;;;;9.84;100.00;102832.34;5052613;28;45707;-80
2023/11/22 09:25:22;;;;;;;;;0.00;0.00;;;;;9.85;100.00;102821.06;5073525;28;47056;-81
2023/11/22 09:27:51;;;;;;;;;0.00;0.00;;;;;9.87;100.00;102821.94;5060302;28;45522;-81
2023/11/22 09:30:42;;;;;;;;;0.00;0.00;;;;;9.89;100.00;102817.63;5056511;28;45837;-80
2023/11/22 09:33:08;;;;;;;;;0.00;0.00;;;;;10.00;100.00;102830.69;5067632;27;45837;-81
2023/11/22 09:35:35;;;;;;;;;0.00;0.00;;;;;10.00;100.00;102830.69;5056518;27;45319;-80
2023/11/22 09:38:11;;;;;;;;;0.00;0.00;;;;;10.04;100.00;102822.06;5050198;27;45375;-80
2023/11/22 09:40:43;;;;;;;;;0.00;0.00;;;;;10.06;100.00;102819.47;5059198;28;46036;-81
2023/11/22 09:43:09;;;;;;;;;0.00;0.00;;;;;10.15;100.00;102808.25;5071982;28;45290;-81
2023/11/22 09:45:35;;;;;;;;;0.00;0.00;;;;;10.16;100.00;102808.25;5057446;28;46230;-79
2023/11/22 09:48:02;;;;;;;;;0.00;0.00;;;;;10.22;100.00;102813.50;5055343;28;45607;-80
2023/11/22 09:50:45;;;;;;;;;0.25;0.25;;;;;10.28;100.00;102818.72;5071308;28;45445;-80
2023/11/22 09:53:14;;;;;;;;;0.00;0.00;;;;;10.31;100.00;102825.72;5047489;27;45522;-80
2023/11/22 09:55:42;;;;;;;;;0.00;0.00;;;;;10.37;100.00;102824.91;5054654;28;46238;-80
2023/11/22 09:58:10;;;;;;;;;0.00;0.00;;;;;10.42;100.00;102815.38;5087752;27;45501;-81
2023/11/22 10:00:35;;;;;;;;;0.00;0.00;;;;;10.46;100.00;102818.00;5077318;27;45425;-81
2023/11/22 10:03:01;;;;;;;;;0.00;0.00;;;;;10.51;100.00;102812.81;5085740;27;45557;-81
2023/11/22 10:05:28;;;;;;;;;0.00;0.00;;;;;10.59;100.00;102824.13;5072308;28;46047;-80
2023/11/22 10:07:54;;;;;;;;;0.00;0.00;;;;;10.63;100.00;102822.41;5084433;27;45726;-80
2023/11/22 10:10:22;;;;;;;;;0.00;0.00;;;;;10.69;100.00;102819.81;5097613;27;45393;-80
2023/11/22 10:12:48;;;;;;;;;3.00;3.00;;;;;10.72;100.00;102819.00;5097570;27;45267;-79
2023/11/22 10:15:15;;;;;;;;;0.00;0.00;;;;;10.80;100.00;102819.88;5096755;27;46589;-80
2023/11/22 10:17:47;;;;;;;;;0.00;0.00;;;;;10.84;100.00;102819.00;5093830;27;45518;-81
2023/11/22 10:20:13;;;;;;;;;0.00;0.00;;;;;10.90;100.00;102821.66;5106830;27;45528;-80
2023/11/22 10:22:47;;;;;;;;;0.00;0.00;;;;;11.00;100.00;102831.22;5091033;27;68336;-81
2023/11/22 10:25:13;;;;;;;;;2.00;2.00;;;;;11.05;100.00;102831.25;5094220;27;46517;-81
2023/11/22 10:27:39;;;;;;;;;0.00;0.00;;;;;11.14;100.00;102833.84;5113721;27;45872;-80
2023/11/22 10:30:06;;;;;;;;;0.00;0.00;;;;;11.22;100.00;102828.69;5091730;27;45393;-80
2023/11/22 10:32:32;;;;;;;;;1.00;1.00;;;;;11.29;100.00;102834.75;5077240;27;45428;-80
2023/11/22 10:34:57;;;;;;;;;0.75;0.75;;;;;11.38;100.00;102837.38;5076628;27;45379;-79
2023/11/22 10:37:25;;;;;;;;;0.00;0.00;;;;;11.47;100.00;102837.38;5086907;27;45497;-80
2023/11/22 10:39:51;;;;;;;;;0.00;0.00;;;;;11.63;100.00;102846.09;5095579;27;45505;-79
2023/11/22 10:42:17;;;;;;;;;0.25;0.25;;;;;11.75;100.00;102843.47;5097265;27;45300;-79
2023/11/22 10:44:42;;;;;;;;;0.00;0.00;;;;;11.91;100.00;102841.78;5094844;27;75117;-80
2023/11/22 10:47:08;;;;;;;;;0.00;0.00;;;;;12.15;100.00;102846.09;5094842;27;72301;-78
2023/11/22 10:49:33;;;;;;;;;0.00;0.00;;;;;12.39;100.00;102841.69;5096213;27;45446;-79
2023/11/22 10:52:00;;;;;;;;;0.00;0.00;;;;;12.73;100.00;102836.34;5096598;27;49565;-80
2023/11/22 10:54:26;;;;;;;;;0.00;0.00;;;;;13.01;100.00;102830.97;5114004;27;46214;-79
2023/11/22 10:56:55;;;;;;;;;1.00;1.00;;;;;14.50;100.00;102827.94;5099317;27;55562;-80
2023/11/22 10:59:23;;;;;;;;;0.00;0.00;;;;;17.78;100.00;102821.78;5096567;27;45403;-79
2023/11/22 11:01:52;;;;;;;;;0.00;0.00;;;;;20.11;100.00;102817.31;5095600;27;45546;-80
2023/11/22 11:04:24;;;;;;;;;0.00;0.00;;;;;21.83;100.00;102825.56;5106000;27;46317;-81
2023/11/22 11:06:54;;;;;;;;;0.25;0.25;;;;;22.93;100.00;102824.97;5114576;27;45462;-81
2023/11/22 11:09:21;;;;;;;;;0.00;0.00;;;;;23.49;100.00;102823.13;5081614;27;45398;-82
2023/11/22 11:11:46;;;;;;;;;0.00;0.00;;;;;23.74;100.00;102825.41;5095647;27;45855;-81
2023/11/22 11:14:13;;;;;;;;;0.00;0.00;;;;;23.96;100.00;102824.31;5091587;27;45569;-81
2023/11/22 11:16:41;;;;;;;;;0.00;0.00;;;;;23.99;100.00;102831.25;5093807;27;45479;-82